Time;durP1;ratioP1;P1;durP2;ratioP2;P2;SDS_P1;SDS_P2;PMS_P1;PMS_P2;Temp;Humidity;BMP_temperature;BMP_pressure;BME280_temperature;BME280_humidity;BME280_pressure;Samples;Min_cycle;Max_cycle;Signal;HPM_P1;HPM_P2
2024/03/24 00:00:27;;;;;;;2.22;1.10;;;;;;;3.59;63.55;99118.06;10399976;28;20056;-82
2024/03/24 00:05:28;;;;;;;1.40;1.00;;;;;;;3.68;63.42;99109.91;10413413;28;20103;-82
2024/03/24 00:10:29;;;;;;;0.70;0.70;;;;;;;3.78;63.19;99093.06;10423411;28;20111;-82
2024/03/24 00:15:30;;;;;;;1.27;1.10;;;;;;;3.82;62.69;99100.59;10398228;28;20044;-82
2024/03/24 00:20:36;;;;;;;1.70;0.95;;;;;;;3.80;62.91;99086.06;10429459;28;20095;-82
2024/03/24 00:25:36;;;;;;;3.08;1.20;;;;;;;3.88;62.43;99084.00;10439092;28;20263;-82
2024/03/24 00:30:37;;;;;;;1.00;0.90;;;;;;;3.86;62.45;99072.91;10435174;28;20103;-82
2024/03/24 00:35:39;;;;;;;1.98;1.13;;;;;;;3.94;61.99;99065.63;10421553;28;20132;-82
2024/03/24 00:40:40;;;;;;;1.10;0.90;;;;;;;3.93;61.52;99051.00;10428338;28;20588;-81
2024/03/24 00:45:41;;;;;;;1.20;1.10;;;;;;;3.97;61.29;99039.59;10427802;28;20144;-81
2024/03/24 00:50:43;;;;;;;1.27;0.85;;;;;;;4.02;60.99;99027.28;10412478;28;20088;-81
2024/03/24 00:55:44;;;;;;;2.00;0.90;;;;;;;3.93;60.98;99030.31;10413013;28;21198;-81
2024/03/24 01:00:46;;;;;;;0.98;0.82;;;;;;;3.89;60.94;99018.41;10412183;28;20056;-82
2024/03/24 01:05:48;;;;;;;1.67;1.05;;;;;;;3.90;60.96;99029.63;10413497;28;20084;-82
2024/03/24 01:10:49;;;;;;;2.13;0.82;;;;;;;3.92;61.04;99035.56;10428323;28;20135;-82
2024/03/24 01:15:51;;;;;;;3.00;0.85;;;;;;;3.90;60.88;99024.44;10414033;28;20139;-82
2024/03/24 01:20:52;;;;;;;1.98;1.10;;;;;;;3.80;61.11;99026.59;10429885;28;20052;-81
2024/03/24 01:25:53;;;;;;;1.75;1.13;;;;;;;3.71;61.39;99014.94;10419147;28;20057;-82
2024/03/24 01:30:54;;;;;;;2.42;1.15;;;;;;;3.71;61.53;99020.09;10445564;28;20061;-81
2024/03/24 01:35:55;;;;;;;1.58;0.93;;;;;;;3.69;61.87;99000.38;10427972;28;20151;-82
2024/03/24 01:40:56;;;;;;;2.83;1.00;;;;;;;3.83;61.73;98990.22;10412856;28;20858;-82
2024/03/24 01:45:57;;;;;;;2.72;0.80;;;;;;;3.94;61.63;99000.09;10396220;28;20053;-82
2024/03/24 01:50:58;;;;;;;3.35;0.63;;;;;;;4.20;60.95;98995.34;10446152;28;20138;-81
2024/03/24 01:55:59;;;;;;;3.60;1.10;;;;;;;4.14;61.03;98987.91;10427279;28;20845;-81
2024/03/24 02:01:02;;;;;;;0.98;0.82;;;;;;;4.15;61.34;98989.56;10414387;28;20052;-81
2024/03/24 02:06:04;;;;;;;1.13;0.80;;;;;;;4.29;61.09;98973.38;10395754;28;20081;-81
2024/03/24 02:11:05;;;;;;;1.13;0.93;;;;;;;4.13;61.42;98980.22;10412476;28;20068;-82
2024/03/24 02:16:08;;;;;;;1.90;0.80;;;;;;;4.11;61.28;98962.16;10436418;28;20056;-81
2024/03/24 02:21:09;;;;;;;4.07;0.90;;;;;;;4.06;61.28;98966.72;10402618;28;20061;-82
2024/03/24 02:26:10;;;;;;;1.80;0.70;;;;;;;3.94;61.65;98971.66;10436032;28;20053;-81
2024/03/24 02:31:11;;;;;;;0.85;0.77;;;;;;;3.97;61.72;98962.00;10424644;28;20084;-81
2024/03/24 02:36:12;;;;;;;0.80;0.77;;;;;;;3.97;61.86;98959.41;10440291;28;20087;-81
2024/03/24 02:41:14;;;;;;;0.70;0.70;;;;;;;3.87;62.29;98960.75;10425825;28;20060;-82
2024/03/24 02:46:15;;;;;;;1.42;0.90;;;;;;;4.06;61.67;98953.78;10418153;28;20044;-81
2024/03/24 02:51:16;;;;;;;1.33;0.82;;;;;;;4.12;61.38;98947.47;10440125;28;20056;-81
2024/03/24 02:56:17;;;;;;;0.93;0.70;;;;;;;4.14;61.26;98943.91;10416240;28;20084;-81
2024/03/24 03:01:18;;;;;;;0.90;0.57;;;;;;;4.10;61.44;98934.63;10401571;28;20398;-82
2024/03/24 03:06:19;;;;;;;2.05;1.08;;;;;;;3.92;61.71;98930.34;10430970;28;20051;-82
2024/03/24 03:11:20;;;;;;;1.13;0.80;;;;;;;3.87;62.02;98932.31;10400563;28;20052;-82
2024/03/24 03:16:21;;;;;;;1.45;0.68;;;;;;;3.82;61.93;98934.25;10432154;28;20081;-82
2024/03/24 03:21:22;;;;;;;2.08;0.90;;;;;;;3.81;61.80;98937.75;10423952;28;20488;-81
2024/03/24 03:26:23;;;;;;;0.60;0.60;;;;;;;3.76;62.09;98935.38;10415416;28;20056;-81
2024/03/24 03:31:24;;;;;;;0.45;0.45;;;;;;;3.80;62.06;98928.31;10414725;28;20164;-81
2024/03/24 03:36:25;;;;;;;1.00;0.80;;;;;;;3.75;62.35;98930.28;10431343;28;20083;-81
2024/03/24 03:41:26;;;;;;;0.70;0.70;;;;;;;3.77;62.27;98928.47;10415767;28;20084;-82
2024/03/24 03:46:27;;;;;;;1.58;0.90;;;;;;;3.91;61.87;98915.72;10400212;28;20079;-81
2024/03/24 03:51:37;;;;;;;1.25;0.68;;;;;;;3.95;61.53;98906.06;10400732;28;20052;-81
2024/03/24 03:56:38;;;;;;;0.93;0.85;;;;;;;3.98;61.42;98899.00;10439296;28;20119;-82
2024/03/24 04:01:40;;;;;;;0.98;0.80;;;;;;;3.92;61.32;98885.53;10415208;28;20059;-82
2024/03/24 04:06:41;;;;;;;1.65;1.17;;;;;;;3.98;61.34;98880.91;10440008;28;20108;-81
2024/03/24 04:11:43;;;;;;;0.90;0.75;;;;;;;4.05;61.02;98874.50;10398767;28;20053;-81
2024/03/24 04:16:44;;;;;;;1.77;0.88;;;;;;;3.92;61.01;98876.03;10400368;28;20048;-82
2024/03/24 04:21:47;;;;;;;1.13;0.80;;;;;;;4.14;60.50;98874.03;10445970;28;20118;-82
2024/03/24 04:26:48;;;;;;;0.90;0.90;;;;;;;4.11;60.43;98869.00;10438847;28;20144;-82
2024/03/24 04:31:49;;;;;;;1.20;0.88;;;;;;;4.30;60.08;98862.00;10399488;28;20144;-81
2024/03/24 04:36:50;;;;;;;0.98;0.90;;;;;;;4.30;59.95;98867.16;10430225;28;20045;-82
2024/03/24 04:41:51;;;;;;;1.05;0.82;;;;;;;4.23;60.22;98859.81;10398105;28;20068;-82
2024/03/24 04:46:53;;;;;;;0.85;0.82;;;;;;;4.26;60.13;98844.09;10413941;28;20059;-81
2024/03/24 04:51:57;;;;;;;0.70;0.70;;;;;;;4.18;60.46;98841.91;10422867;28;20049;-81
2024/03/24 04:56:58;;;;;;;1.00;0.90;;;;;;;4.14;60.11;98845.56;10428490;28;20515;-82
2024/03/24 05:01:59;;;;;;;0.73;0.57;;;;;;;4.27;60.07;98840.63;10412821;28;20114;-82
2024/03/24 05:07:00;;;;;;;3.80;1.20;;;;;;;4.28;59.95;98840.53;10421309;28;20537;-82
2024/03/24 05:12:02;;;;;;;1.58;0.80;;;;;;;4.41;59.74;98835.56;10420543;28;20081;-81
2024/03/24 05:17:03;;;;;;;1.05;0.93;;;;;;;4.40;59.39;98834.72;10395616;28;20613;-81
2024/03/24 05:22:05;;;;;;;1.25;0.98;;;;;;;4.50;59.80;98835.91;10395647;28;20060;-81
2024/03/24 05:27:07;;;;;;;1.38;0.93;;;;;;;4.45;59.01;98824.13;10412187;28;20148;-81
2024/03/24 05:32:08;;;;;;;3.75;1.25;;;;;;;4.49;59.37;98830.81;10395531;28;20072;-82
2024/03/24 05:37:09;;;;;;;1.13;0.82;;;;;;;4.42;59.56;98838.06;10372372;28;20142;-81
2024/03/24 05:42:10;;;;;;;2.60;1.30;;;;;;;4.59;59.12;98832.84;10371080;28;20057;-81
2024/03/24 05:47:11;;;;;;;2.55;1.10;;;;;;;4.47;59.06;98830.06;10388294;28;20057;-81
2024/03/24 05:52:12;;;;;;;1.80;1.10;;;;;;;4.67;59.06;98807.38;10386457;28;20091;-82
2024/03/24 05:57:13;;;;;;;0.80;0.70;;;;;;;4.65;58.96;98809.22;10392805;28;20048;-82
2024/03/24 06:02:15;;;;;;;1.50;0.90;;;;;;;4.69;59.46;98810.72;10378273;28;20064;-81
2024/03/24 06:07:16;;;;;;;3.80;0.90;;;;;;;4.50;59.19;98817.78;10378165;28;20061;-82
2024/03/24 06:12:17;;;;;;;2.30;1.05;;;;;;;4.67;59.39;98799.63;10376998;28;20175;-81
2024/03/24 06:17:18;;;;;;;1.77;1.10;;;;;;;4.83;59.07;98811.72;10361566;28;20447;-81
2024/03/24 06:22:20;;;;;;;5.25;1.17;;;;;;;4.87;58.77;98811.47;10377659;28;20176;-82
2024/03/24 06:27:21;;;;;;;3.97;1.00;;;;;;;4.98;58.39;98811.75;10384751;28;20453;-81
2024/03/24 06:32:22;;;;;;;1.42;0.93;;;;;;;5.13;58.63;98816.06;10393607;28;20057;-82
2024/03/24 06:37:23;;;;;;;1.98;0.77;;;;;;;5.47;58.06;98812.44;10419980;28;20061;-82
2024/03/24 06:42:24;;;;;;;2.97;1.33;;;;;;;5.64;57.88;98814.88;10400096;28;20106;-82
2024/03/24 06:47:25;;;;;;;1.25;0.90;;;;;;;5.59;57.44;98822.09;10402137;28;20169;-82
2024/03/24 06:52:26;;;;;;;2.83;1.17;;;;;;;5.65;57.34;98821.75;10417609;28;20053;-82
2024/03/24 06:57:27;;;;;;;2.67;1.17;;;;;;;5.49;57.66;98833.94;10466039;28;21062;-82
2024/03/24 07:02:29;;;;;;;1.48;1.00;;;;;;;5.22;58.37;98831.13;10449248;28;20047;-82
2024/03/24 07:07:31;;;;;;;1.85;1.30;;;;;;;5.26;58.56;98830.03;10416987;28;20078;-82
2024/03/24 07:12:32;;;;;;;4.53;1.23;;;;;;;5.41;57.90;98831.75;10450515;28;20075;-81
2024/03/24 07:17:34;;;;;;;1.65;0.77;;;;;;;5.54;57.84;98835.31;10420588;28;20143;-81
2024/03/24 07:22:35;;;;;;;1.75;1.00;;;;;;;5.69;57.73;98831.03;10418471;28;21113;-81
2024/03/24 07:27:36;;;;;;;2.58;1.40;;;;;;;5.76;57.37;98831.53;10455227;28;20126;-82
2024/03/24 07:32:37;;;;;;;2.25;1.30;;;;;;;5.96;57.10;98832.00;10399954;28;20099;-82
2024/03/24 07:37:38;;;;;;;2.85;1.25;;;;;;;6.34;56.83;98817.66;10431509;28;20426;-83
2024/03/24 07:42:42;;;;;;;6.22;1.45;;;;;;;6.49;56.25;98826.25;10401440;28;20072;-81
2024/03/24 07:47:43;;;;;;;1.52;0.90;;;;;;;6.55;56.11;98844.06;10415604;28;20075;-82
2024/03/24 07:52:44;;;;;;;2.92;1.00;;;;;;;6.58;55.80;98836.09;10472271;28;20057;-81
2024/03/24 07:57:48;;;;;;;3.38;1.17;;;;;;;6.56;55.84;98842.31;10398133;28;20147;-83
2024/03/24 08:02:49;;;;;;;4.18;1.00;;;;;;;6.60;56.23;98839.44;10416100;28;20052;-82
2024/03/24 08:07:51;;;;;;;2.70;1.27;;;;;;;6.65;55.89;98829.63;10397589;28;20147;-82
2024/03/24 08:12:52;;;;;;;2.42;1.35;;;;;;;6.83;56.19;98833.69;10398938;28;20048;-82
2024/03/24 08:17:53;;;;;;;2.88;1.27;;;;;;;7.07;56.56;98839.09;10414230;28;20053;-82
2024/03/24 08:22:54;;;;;;;2.60;1.30;;;;;;;7.22;56.94;98832.94;10398707;28;20056;-82
2024/03/24 08:27:55;;;;;;;2.40;1.25;;;;;;;7.49;56.49;98833.75;10445878;28;20135;-82
2024/03/24 08:32:57;;;;;;;9.45;3.60;;;;;;;7.94;55.91;98832.53;10430680;28;20053;-82
2024/03/24 08:37:58;;;;;;;4.93;2.10;;;;;;;7.50;56.65;98835.44;10453914;28;20581;-81
2024/03/24 08:42:59;;;;;;;3.17;1.92;;;;;;;6.69;58.69;98857.06;10432572;28;20063;-81
2024/03/24 08:48:00;;;;;;;1.65;1.30;;;;;;;6.50;59.56;98861.72;10413816;28;20425;-81
2024/03/24 08:53:01;;;;;;;2.35;1.30;;;;;;;6.34;60.43;98846.22;10444968;28;20059;-82
2024/03/24 08:58:02;;;;;;;1.55;1.20;;;;;;;6.14;60.29;98867.25;10446386;28;20502;-82
2024/03/24 09:03:04;;;;;;;0.77;0.65;;;;;;;6.42;60.49;98873.47;10422917;28;20120;-82
2024/03/24 09:08:05;;;;;;;2.00;1.23;;;;;;;6.82;60.33;98876.16;10417310;28;20549;-81
2024/03/24 09:13:06;;;;;;;0.98;0.90;;;;;;;6.81;59.44;98881.47;10448619;28;20053;-82
2024/03/24 09:18:07;;;;;;;6.82;1.35;;;;;;;6.52;60.15;98882.38;10457307;28;20049;-82
2024/03/24 09:23:08;;;;;;;1.30;0.93;;;;;;;6.39;61.15;98884.88;10397582;28;20061;-82
2024/03/24 09:28:09;;;;;;;2.00;0.90;;;;;;;6.09;61.27;98892.66;10422563;28;20053;-82
2024/03/24 09:33:10;;;;;;;2.60;1.17;;;;;;;6.18;61.06;98880.94;10422781;28;20048;-81
2024/03/24 09:38:11;;;;;;;1.50;1.10;;;;;;;6.83;61.03;98882.22;10436471;28;20052;-81
2024/03/24 09:43:14;;;;;;;1.00;0.90;;;;;;;7.22;60.25;98865.91;10437367;28;20049;-81
2024/03/24 09:48:16;;;;;;;1.27;0.90;;;;;;;7.96;59.89;98865.34;10453808;28;20087;-81
2024/03/24 09:53:20;;;;;;;1.30;0.90;;;;;;;8.72;58.88;98860.22;10420989;28;20131;-81
2024/03/24 09:58:23;;;;;;;1.98;1.00;;;;;;;9.17;58.22;98851.78;10460337;28;20083;-81
2024/03/24 10:03:24;;;;;;;2.22;1.13;;;;;;;9.87;57.61;98836.25;10442830;28;20132;-81
2024/03/24 10:08:32;;;;;;;1.05;0.80;;;;;;;9.86;56.86;98832.81;10450576;28;20064;-81
2024/03/24 10:13:43;;;;;;;1.88;1.30;;;;;;;9.48;56.75;98819.91;10433089;28;20060;-81
2024/03/24 10:18:44;;;;;;;1.48;1.08;;;;;;;9.66;56.22;98828.22;10425527;28;21385;-82
2024/03/24 10:23:45;;;;;;;1.55;0.90;;;;;;;9.67;55.94;98814.22;10434675;28;20052;-82
2024/03/24 10:28:48;;;;;;;1.45;0.80;;;;;;;10.23;55.12;98813.44;10449874;28;20057;-82
2024/03/24 10:33:51;;;;;;;1.40;1.10;;;;;;;10.04;54.83;98813.16;10424406;28;20158;-81
2024/03/24 10:38:52;;;;;;;2.35;1.00;;;;;;;9.34;55.69;98832.31;10448790;28;20098;-81
2024/03/24 10:43:54;;;;;;;2.50;0.90;;;;;;;9.10;56.68;98824.44;10456833;28;20103;-81
2024/03/24 10:48:58;;;;;;;0.80;0.80;;;;;;;9.22;54.82;98843.63;10449895;28;20484;-80
2024/03/24 10:54:05;;;;;;;1.83;0.98;;;;;;;8.50;54.66;98860.00;10417269;28;20080;-80
2024/03/24 10:59:07;;;;;;;1.27;0.90;;;;;;;6.86;57.18;98864.66;10417334;28;20084;-81
2024/03/24 11:04:09;;;;;;;1.70;1.23;;;;;;;6.51;58.39;98868.56;10424180;28;20044;-81
2024/03/24 11:09:12;;;;;;;1.13;0.90;;;;;;;6.73;58.72;98857.72;10424651;28;20154;-80
2024/03/24 11:14:14;;;;;;;1.10;0.90;;;;;;;7.19;58.06;98851.31;10434858;28;20596;-80
2024/03/24 11:19:15;;;;;;;2.45;1.15;;;;;;;7.62;58.15;98842.47;10416861;28;20087;-81
2024/03/24 11:24:24;;;;;;;4.50;1.30;;;;;;;8.07;57.86;98827.34;10418571;28;20139;-81
2024/03/24 11:29:48;;;;;;;2.05;1.05;;;;;;;8.15;58.40;98822.47;10400838;28;20059;-80
2024/03/24 11:34:53;;;;;;;3.17;1.27;;;;;;;8.32;58.64;98809.16;10416694;28;20068;-81
2024/03/24 11:39:55;;;;;;;2.35;1.25;;;;;;;8.50;58.44;98802.69;10422389;28;20587;-81
2024/03/24 11:45:28;;;;;;;5.25;1.50;;;;;;;8.73;57.16;98802.75;10431752;28;20190;-81
2024/03/24 11:50:34;;;;;;;2.58;1.65;;;;;;;8.37;56.15;98802.69;10432663;28;20053;-81
2024/03/24 11:55:42;;;;;;;2.13;1.27;;;;;;;8.50;53.46;98776.63;10448975;28;20049;-80
2024/03/24 12:00:44;;;;;;;2.78;1.10;;;;;;;8.62;52.45;98760.13;10416535;28;20056;-81
2024/03/24 12:05:47;;;;;;;6.28;2.00;;;;;;;9.54;53.52;98745.56;10438517;28;20064;-81
2024/03/24 12:10:52;;;;;;;1.45;1.00;;;;;;;10.73;52.12;98751.16;10448483;28;20060;-81
2024/03/24 12:16:00;;;;;;;1.65;1.00;;;;;;;11.01;51.43;98746.22;10465122;27;20624;-59
2024/03/24 12:21:02;;;;;;;2.30;1.40;;;;;;;10.79;51.17;98740.22;10461628;28;20047;-60
2024/03/24 12:26:04;;;;;;;3.80;1.55;;;;;;;10.33;53.04;98746.44;10459597;28;20133;-60
2024/03/24 12:31:09;;;;;;;3.38;1.40;;;;;;;10.75;53.11;98736.19;10461098;28;20087;-59
2024/03/24 12:36:13;;;;;;;2.40;1.33;;;;;;;11.29;52.17;98727.38;10462306;28;20044;-59
2024/03/24 12:41:23;;;;;;;2.33;1.00;;;;;;;11.52;50.36;98714.22;10461313;28;20076;-60
2024/03/24 12:46:34;;;;;;;2.75;1.45;;;;;;;11.09;49.29;98704.63;10462416;28;20048;-59
2024/03/24 12:51:36;;;;;;;2.75;1.20;;;;;;;11.22;49.81;98710.53;10460199;28;20080;-59
2024/03/24 12:56:43;;;;;;;5.78;1.77;;;;;;;11.54;49.02;98725.38;10445446;28;20541;-59
2024/03/24 13:01:48;;;;;;;1.95;1.30;;;;;;;10.96;47.12;98734.47;10460546;28;21592;-60
2024/03/24 13:06:57;;;;;;;1.58;0.93;;;;;;;9.91;50.25;98832.47;10459887;28;20497;-59
2024/03/24 13:12:00;;;;;;;1.92;1.08;;;;;;;8.42;54.17;98792.81;10443455;28;20429;-59
2024/03/24 13:17:32;;;;;;;1.15;0.73;;;;;;;8.45;54.33;98776.09;10443880;28;20045;-59
2024/03/24 13:22:35;;;;;;;2.13;1.02;;;;;;;8.83;53.95;98787.31;10441104;28;20610;-59
2024/03/24 13:27:47;;;;;;;1.15;0.70;;;;;;;9.03;54.49;98796.31;10399108;28;20071;-59
2024/03/24 13:32:50;;;;;;;2.50;0.90;;;;;;;8.38;54.42;98773.13;10432134;28;20574;-59
2024/03/24 13:38:20;;;;;;;1.40;1.00;;;;;;;8.62;54.45;98776.63;10431823;28;20071;-59
2024/03/24 13:43:53;;;;;;;3.25;1.30;;;;;;;9.06;52.67;98775.22;10411531;28;20079;-59
2024/03/24 13:49:00;;;;;;;3.08;1.00;;;;;;;9.33;51.97;98762.78;10432468;28;20044;-58
2024/03/24 13:54:07;;;;;;;4.63;1.05;;;;;;;9.49;52.15;98773.78;10431627;28;20136;-59
2024/03/24 13:59:08;;;;;;;5.20;2.05;;;;;;;9.26;51.76;98783.28;10414548;28;20285;-58
2024/03/24 14:04:11;;;;;;;2.17;1.10;;;;;;;8.94;53.41;98796.97;10431674;28;20045;-60
2024/03/24 14:09:14;;;;;;;1.52;1.13;;;;;;;8.47;55.76;98816.75;10431233;28;20063;-58
2024/03/24 14:14:39;;;;;;;0.65;0.65;;;;;;;8.11;55.26;98801.03;10429969;28;20424;-58
2024/03/24 14:19:48;;;;;;;1.20;1.10;;;;;;;8.26;57.36;98778.31;10415402;28;20053;-59
2024/03/24 14:25:13;;;;;;;4.15;1.85;;;;;;;8.81;55.17;98768.34;10430557;28;20059;-59
2024/03/24 14:30:14;;;;;;;1.38;1.00;;;;;;;9.18;54.50;98766.53;10430280;28;20568;-59
2024/03/24 14:35:20;;;;;;;2.53;1.17;;;;;;;9.12;53.72;98783.44;10412709;28;20052;-58
2024/03/24 14:40:40;;;;;;;1.08;0.93;;;;;;;9.29;54.03;98777.84;10411660;28;20293;-59
2024/03/24 14:46:06;;;;;;;2.97;1.17;;;;;;;9.65;53.37;98775.16;10429048;28;20538;-59
2024/03/24 14:51:07;;;;;;;1.42;1.00;;;;;;;9.68;53.25;98773.28;10412614;28;20059;-59
2024/03/24 14:56:08;;;;;;;3.13;1.35;;;;;;;9.60;53.05;98777.28;10428815;28;20040;-59
2024/03/24 15:01:09;;;;;;;2.00;1.10;;;;;;;9.38;52.52;98777.16;10412915;28;20049;-59
2024/03/24 15:06:10;;;;;;;2.97;0.93;;;;;;;9.25;53.32;98778.19;10428591;28;20029;-59
2024/03/24 15:11:11;;;;;;;1.70;1.20;;;;;;;8.92;52.41;98778.81;10411112;28;20565;-59
2024/03/24 15:16:12;;;;;;;2.90;1.23;;;;;;;8.73;53.33;98775.84;10411924;28;20052;-59
2024/03/24 15:21:13;;;;;;;1.50;1.10;;;;;;;9.16;52.57;98777.06;10427417;28;20080;-59
2024/03/24 15:26:14;;;;;;;1.27;1.00;;;;;;;9.42;52.66;98791.66;10397416;28;20033;-59
2024/03/24 15:31:15;;;;;;;1.73;1.10;;;;;;;9.36;52.50;98786.88;10410549;28;20108;-59
2024/03/24 15:36:16;;;;;;;1.23;0.90;;;;;;;9.14;52.78;98788.53;10410494;28;20044;-59
2024/03/24 15:41:17;;;;;;;1.10;0.80;;;;;;;9.11;52.90;98792.22;10427442;28;20056;-59
2024/03/24 15:46:20;;;;;;;2.05;1.00;;;;;;;8.64;52.89;98784.31;10427205;28;20048;-59
2024/03/24 15:51:20;;;;;;;3.42;1.10;;;;;;;8.23;53.47;98800.19;10426171;28;20067;-59
2024/03/24 15:56:31;;;;;;;1.70;0.95;;;;;;;8.53;53.44;98807.66;10427731;28;20029;-59
2024/03/24 16:01:51;;;;;;;;;;;;;;;8.83;52.34;98800.34;10411004;28;20515;-59
2024/03/24 16:06:52;;;;;;;2.70;1.70;;;;;;;8.91;51.90;98798.03;10419964;28;19935;-59
2024/03/24 16:11:59;;;;;;;3.15;1.58;;;;;;;8.58;52.35;98796.00;10425474;28;20052;-59
2024/03/24 16:17:00;;;;;;;1.83;1.20;;;;;;;8.49;52.77;98787.97;10423697;28;20102;-61
2024/03/24 16:22:17;;;;;;;2.38;1.30;;;;;;;8.44;52.99;98800.50;10423651;28;20132;-60
2024/03/24 16:27:18;;;;;;;1.88;1.02;;;;;;;8.69;53.23;98796.06;10425271;28;20049;-60
2024/03/24 16:32:21;;;;;;;3.55;1.42;;;;;;;8.60;53.54;98799.34;10442955;28;20057;-60
2024/03/24 16:37:22;;;;;;;3.78;1.42;;;;;;;8.37;54.32;98796.63;10426536;28;20049;-60
2024/03/24 16:42:23;;;;;;;2.55;1.30;;;;;;;8.14;54.40;98802.59;10425278;28;20041;-60
2024/03/24 16:47:25;;;;;;;4.63;1.73;;;;;;;8.09;54.53;98804.63;10394096;28;20041;-60
2024/03/24 16:52:26;;;;;;;4.13;1.70;;;;;;;7.98;54.85;98821.81;10403872;28;20041;-60
2024/03/24 16:57:29;;;;;;;4.10;1.20;;;;;;;7.79;56.05;98846.56;10400094;28;20163;-60
2024/03/24 17:02:31;;;;;;;4.57;1.45;;;;;;;7.75;55.99;98835.50;10446393;28;20060;-60
2024/03/24 17:07:33;;;;;;;2.40;1.30;;;;;;;7.49;57.00;98843.38;10406049;28;20044;-60
2024/03/24 17:12:39;;;;;;;2.15;1.48;;;;;;;7.24;56.99;98848.44;10460713;28;20064;-60
2024/03/24 17:17:40;;;;;;;6.25;1.20;;;;;;;7.23;56.95;98836.34;10429115;28;20063;-60
2024/03/24 17:22:41;;;;;;;3.10;1.58;;;;;;;7.23;56.75;98847.59;10429445;28;20554;-60
2024/03/24 17:27:44;;;;;;;2.95;1.65;;;;;;;7.20;56.67;98853.00;10411490;28;20102;-60
2024/03/24 17:32:47;;;;;;;3.88;1.45;;;;;;;7.22;56.51;98858.09;10426330;28;20104;-60
2024/03/24 17:37:48;;;;;;;2.83;1.58;;;;;;;7.08;56.93;98858.97;10428005;28;20033;-60
2024/03/24 17:42:49;;;;;;;2.80;1.55;;;;;;;7.03;56.80;98856.66;10409644;28;20041;-60
2024/03/24 17:47:50;;;;;;;4.80;2.17;;;;;;;6.88;56.67;98862.78;10427482;28;20064;-60
2024/03/24 17:52:52;;;;;;;1.58;1.23;;;;;;;6.90;56.01;98852.31;10424358;28;20060;-60
2024/03/24 17:57:55;;;;;;;3.78;1.50;;;;;;;6.89;56.01;98848.06;10428363;28;20508;-60
2024/03/24 18:02:57;;;;;;;2.45;1.48;;;;;;;6.87;55.84;98839.50;10425707;28;20049;-59
2024/03/24 18:13:19;;;;;;;1.83;1.08;;;;;;;6.99;55.27;98870.78;10422545;28;20748;-60
2024/03/24 18:18:22;;;;;;;4.80;1.80;;;;;;;7.25;54.93;98876.09;10420916;28;20321;-60
2024/03/24 18:23:24;;;;;;;3.28;1.30;;;;;;;7.28;55.04;98868.97;10421771;28;20055;-60
2024/03/24 18:28:25;;;;;;;2.95;1.17;;;;;;;7.20;55.33;98868.63;10424149;28;20047;-60
2024/03/24 18:33:27;;;;;;;3.25;1.23;;;;;;;7.23;55.31;98884.00;10419424;28;20489;-60
2024/03/24 18:38:29;;;;;;;3.22;1.63;;;;;;;7.31;55.24;98918.16;10392745;28;20044;-60
2024/03/24 18:43:30;;;;;;;3.42;1.40;;;;;;;7.05;57.38;98938.00;10422409;28;20488;-60
2024/03/24 18:48:31;;;;;;;4.78;1.45;;;;;;;6.75;57.86;98921.66;10425966;28;20081;-59
2024/03/24 18:53:32;;;;;;;1.05;0.90;;;;;;;6.69;57.79;98918.59;10425516;28;20064;-60
2024/03/24 18:58:33;;;;;;;3.03;1.38;;;;;;;6.72;57.79;98937.41;10428740;28;20041;-60
2024/03/24 19:03:34;;;;;;;2.38;1.20;;;;;;;6.80;57.58;98937.78;10411431;28;20057;-60
2024/03/24 19:08:35;;;;;;;2.30;1.40;;;;;;;6.81;57.51;98933.44;10419704;28;20501;-60
2024/03/24 19:13:37;;;;;;;4.28;1.50;;;;;;;6.90;57.05;98938.06;10423706;28;20319;-60
2024/03/24 19:18:38;;;;;;;2.35;1.20;;;;;;;6.95;56.75;98936.88;10428054;28;20103;-58
2024/03/24 19:23:39;;;;;;;4.78;1.80;;;;;;;6.99;56.44;98927.13;10426249;28;20118;-59
2024/03/24 19:28:40;;;;;;;3.35;2.00;;;;;;;6.97;56.29;98947.19;10427445;28;20127;-59
2024/03/24 19:33:42;;;;;;;3.83;1.67;;;;;;;6.65;56.40;98940.50;10413512;28;20455;-58
2024/03/24 19:38:43;;;;;;;2.70;1.27;;;;;;;6.56;56.48;98936.66;10429044;28;20044;-59
2024/03/24 19:43:44;;;;;;;6.53;2.47;;;;;;;6.44;56.75;98944.34;10431164;28;20045;-59
2024/03/24 19:48:45;;;;;;;5.72;1.98;;;;;;;6.38;56.28;98942.94;10414050;28;20044;-59
2024/03/24 19:53:46;;;;;;;3.63;1.17;;;;;;;6.39;56.13;98952.38;10429079;28;20053;-59
2024/03/24 19:58:47;;;;;;;3.10;1.20;;;;;;;6.37;56.17;98948.22;10431311;28;20051;-60
2024/03/24 20:03:49;;;;;;;3.55;1.20;;;;;;;6.41;55.88;98954.91;10430851;28;20037;-59
2024/03/24 20:08:54;;;;;;;4.32;1.50;;;;;;;6.45;55.89;98953.81;10410271;28;20128;-59
2024/03/24 20:13:56;;;;;;;1.30;1.02;;;;;;;6.42;55.88;98961.78;10422029;28;20091;-59
2024/03/24 20:18:58;;;;;;;2.92;1.52;;;;;;;6.46;55.63;98965.84;10420850;28;20406;-59
2024/03/24 20:24:00;;;;;;;0.95;0.88;;;;;;;6.47;54.90;98959.75;10410396;28;20044;-59
2024/03/24 20:29:03;;;;;;;1.70;1.10;;;;;;;6.48;55.35;98977.00;10426470;28;20187;-60
2024/03/24 20:34:05;;;;;;;2.20;1.50;;;;;;;6.32;54.80;98983.09;10428450;28;20040;-59
2024/03/24 20:39:08;;;;;;;0.95;0.85;;;;;;;6.50;55.16;98985.53;10422477;28;20040;-60
2024/03/24 20:44:10;;;;;;;2.65;1.00;;;;;;;6.65;54.95;98982.06;10436036;28;20120;-60
2024/03/24 20:49:13;;;;;;;3.05;1.55;;;;;;;6.75;54.44;98977.97;10422757;28;20051;-60
2024/03/24 20:54:16;;;;;;;1.75;1.10;;;;;;;6.80;54.72;98988.94;10437888;28;20061;-59
2024/03/24 20:59:17;;;;;;;1.45;1.05;;;;;;;6.79;54.65;98987.28;10420148;28;20057;-60
2024/03/24 21:04:18;;;;;;;4.93;1.55;;;;;;;6.86;54.75;98993.75;10438558;28;20052;-60
2024/03/24 21:09:21;;;;;;;7.40;1.55;;;;;;;6.97;54.60;98987.00;10438130;28;20129;-59
2024/03/24 21:14:23;;;;;;;6.20;1.35;;;;;;;6.83;54.90;98993.97;10438221;28;20191;-60
2024/03/24 21:19:25;;;;;;;2.60;1.10;;;;;;;6.82;55.17;98992.28;10414309;28;20049;-58
2024/03/24 21:24:27;;;;;;;5.82;1.38;;;;;;;6.73;55.15;99003.22;10435703;28;20101;-59
2024/03/24 21:29:29;;;;;;;8.02;2.42;;;;;;;6.81;54.87;99001.00;10395460;28;20264;-59
2024/03/24 21:34:35;;;;;;;5.50;1.30;;;;;;;6.81;54.86;99006.22;10429041;28;20136;-58
2024/03/24 21:44:57;;;;;;;4.40;1.40;;;;;;;6.77;55.07;99002.13;10417099;28;20041;-58
2024/03/24 21:49:59;;;;;;;3.58;1.65;;;;;;;6.65;54.85;99001.09;10434648;28;20559;-59
2024/03/24 21:55:00;;;;;;;5.03;1.50;;;;;;;6.78;55.14;99003.78;10432805;28;20033;-59
2024/03/24 22:00:02;;;;;;;3.00;1.50;;;;;;;6.92;54.86;99009.00;10428267;28;20386;-59
2024/03/24 22:05:07;;;;;;;4.72;1.42;;;;;;;6.91;54.70;99007.34;10431595;28;20049;-59
2024/03/24 22:10:09;;;;;;;3.47;1.70;;;;;;;6.60;55.08;98997.06;10434502;28;20045;-60
2024/03/24 22:15:10;;;;;;;4.57;1.90;;;;;;;6.38;55.47;99000.06;10433633;28;20072;-58
2024/03/24 22:20:11;;;;;;;2.80;1.13;;;;;;;6.30;55.62;99005.72;10429990;28;20041;-58
2024/03/24 22:25:13;;;;;;;2.33;1.20;;;;;;;6.34;55.55;98993.38;10433269;28;20045;-58
2024/03/24 22:30:15;;;;;;;4.85;1.73;;;;;;;6.45;55.27;99000.56;10432914;28;20041;-58
2024/03/24 22:35:16;;;;;;;3.67;1.55;;;;;;;6.47;55.33;99007.31;10431050;28;20425;-59
2024/03/24 22:40:17;;;;;;;2.95;1.30;;;;;;;6.29;55.22;99016.16;10399158;28;20052;-59
2024/03/24 22:45:18;;;;;;;2.97;1.33;;;;;;;6.14;55.51;99010.03;10429533;28;20059;-58
2024/03/24 22:50:19;;;;;;;1.27;1.13;;;;;;;6.23;55.41;99012.13;10411786;28;20497;-58
2024/03/24 22:55:20;;;;;;;4.70;1.23;;;;;;;6.29;55.53;99021.34;10426643;28;20504;-59
2024/03/24 23:00:21;;;;;;;1.65;1.10;;;;;;;6.39;55.58;99019.91;10413786;28;20136;-59
2024/03/24 23:05:23;;;;;;;4.65;1.58;;;;;;;6.43;55.38;99025.78;10415977;28;20055;-58
2024/03/24 23:10:24;;;;;;;2.17;1.17;;;;;;;6.48;55.33;99023.75;10431837;28;20411;-58
2024/03/24 23:15:25;;;;;;;3.42;1.83;;;;;;;6.58;55.11;99030.09;10412061;28;20083;-58
2024/03/24 23:20:26;;;;;;;2.55;1.40;;;;;;;6.48;55.18;99039.31;10430650;28;20036;-58
2024/03/24 23:25:27;;;;;;;4.55;1.20;;;;;;;6.43;55.38;99029.19;10430038;28;20135;-59
2024/03/24 23:30:28;;;;;;;3.08;1.35;;;;;;;6.49;55.29;99028.03;10430655;28;20057;-58
2024/03/24 23:35:29;;;;;;;7.25;2.08;;;;;;;6.32;55.46;99035.03;10426642;28;20707;-59
2024/03/24 23:40:30;;;;;;;4.55;1.63;;;;;;;6.33;55.15;99036.69;10423153;28;20045;-58
2024/03/24 23:45:31;;;;;;;1.73;1.10;;;;;;;6.24;55.47;99042.38;10412541;28;20132;-59
2024/03/24 23:50:33;;;;;;;5.32;1.75;;;;;;;6.26;55.19;99047.50;10412954;28;20074;-59
2024/03/24 23:55:35;;;;;;;3.08;1.17;;;;;;;6.41;55.14;99053.59;10408121;28;20049;-59
